Terminal Aerodrome Forecast
Issued by NWS Shreveport, LA

Home | Current Version | Previous Version | Text Only | Print | Product List | Glossary On
Versions: 1 2 3 4 5 6 7 8 9 10 11 12 13 14 15
000
FTUS44 KSHV 202343
TAFLFK
TAF
KLFK 202343Z 2100/2124 35004KT P6SM BKN300
     FM210600 VRB03KT P6SM BKN300
     FM211500 11007KT P6SM BKN100
     FM212100 15007KT P6SM SCT050 BKN100=

USA.gov is the U.S. government's official web portal to all federal, state and local government web resources and services.